Portada
METAR-TAF:

METAR-TAF

Aeroports :

Creston, Iowa, Estats Units d'Amèrica

latitud: 41-01N, longitud: 094-22W, altitud: 394 m

Observació

L'informe es va fer fa 20 minuts, a les 14:55 UTC
Vent 12 kt del Nord/Nord-Est
Temperatura -6°C
Humitat 108%
Pressió 1023 hPa
Visibilitat: 16.1 km
Cel ennuvolat a una alçada de 500 ft

METAR: KCSQ 221455Z AUTO 03012KT 10SM BKN005 M06/M05 A3020 RMK AO2

Hora: 09:15 (15:15 UTC)


TAF: manca

Observacions i pronòstics meteorològics de més de 4000 aeroports (METAR i TAF).

Les estacions disponibles són els punts grocs i vermells al mapa.

Posi el ratolí al punt desitjat per veure el nom de l'estació.

Feu clic per veure les observacions i els pronòstics meteorològics.

Per canviar el mapa: feu clic els botons verds amb una creu de color negre per apropar; al botó verd amb un guió per allunyar la imatge; o en les fletxes verdes per a mapes adjacents.


METAR-TAF: